sensor_id;sensor_type;location;lat;lon;timestamp;P1;durP1;ratioP1;P2;durP2;ratioP2
39400;SDS011;54391;50.000;7.360;2023-08-01T00:00:11;0.10;;;0.10;;
39400;SDS011;54391;50.000;7.360;2023-08-01T00:02:39;0.10;;;0.10;;
39400;SDS011;54391;50.000;7.360;2023-08-01T00:05:08;0.20;;;0.10;;
39400;SDS011;54391;50.000;7.360;2023-08-01T00:07:36;0.13;;;0.10;;
39400;SDS011;54391;50.000;7.360;2023-08-01T00:10:05;0.10;;;0.10;;
39400;SDS011;54391;50.000;7.360;2023-08-01T00:12:32;1.20;;;0.10;;
39400;SDS011;54391;50.000;7.360;2023-08-01T00:15:00;0.10;;;0.10;;
39400;SDS011;54391;50.000;7.360;2023-08-01T00:17:27;0.00;;;0.00;;
39400;SDS011;54391;50.000;7.360;2023-08-01T00:19:54;0.00;;;0.00;;
39400;SDS011;54391;50.000;7.360;2023-08-01T00:22:22;0.30;;;0.10;;
39400;SDS011;54391;50.000;7.360;2023-08-01T00:24:49;0.25;;;0.00;;
39400;SDS011;54391;50.000;7.360;2023-08-01T00:27:17;0.20;;;0.10;;
39400;SDS011;54391;50.000;7.360;2023-08-01T00:29:45;0.17;;;0.10;;
39400;SDS011;54391;50.000;7.360;2023-08-01T00:32:12;0.20;;;0.05;;
39400;SDS011;54391;50.000;7.360;2023-08-01T00:34:40;0.82;;;0.10;;
39400;SDS011;54391;50.000;7.360;2023-08-01T00:37:07;0.10;;;0.03;;
39400;SDS011;54391;50.000;7.360;2023-08-01T00:39:34;0.15;;;0.10;;
39400;SDS011;54391;50.000;7.360;2023-08-01T00:42:02;0.22;;;0.10;;
39400;SDS011;54391;50.000;7.360;2023-08-01T00:44:31;0.28;;;0.10;;
39400;SDS011;54391;50.000;7.360;2023-08-01T00:46:58;0.22;;;0.10;;
39400;SDS011;54391;50.000;7.360;2023-08-01T00:49:25;0.13;;;0.10;;
39400;SDS011;54391;50.000;7.360;2023-08-01T00:51:52;0.05;;;0.00;;
39400;SDS011;54391;50.000;7.360;2023-08-01T00:54:20;0.10;;;0.00;;
39400;SDS011;54391;50.000;7.360;2023-08-01T00:56:47;0.00;;;0.00;;
39400;SDS011;54391;50.000;7.360;2023-08-01T00:59:15;0.10;;;0.03;;
39400;SDS011;54391;50.000;7.360;2023-08-01T01:01:44;0.20;;;0.10;;
39400;SDS011;54391;50.000;7.360;2023-08-01T01:04:11;0.10;;;0.00;;
39400;SDS011;54391;50.000;7.360;2023-08-01T01:06:43;0.00;;;0.00;;
39400;SDS011;54391;50.000;7.360;2023-08-01T01:09:14;0.10;;;0.00;;
39400;SDS011;54391;50.000;7.360;2023-08-01T01:11:42;0.10;;;0.03;;
39400;SDS011;54391;50.000;7.360;2023-08-01T01:14:10;0.00;;;0.00;;
39400;SDS011;54391;50.000;7.360;2023-08-01T01:16:37;0.00;;;0.00;;
39400;SDS011;54391;50.000;7.360;2023-08-01T01:19:07;0.10;;;0.00;;
39400;SDS011;54391;50.000;7.360;2023-08-01T01:21:37;0.10;;;0.00;;
39400;SDS011;54391;50.000;7.360;2023-08-01T01:24:12;0.00;;;0.00;;
39400;SDS011;54391;50.000;7.360;2023-08-01T01:26:41;0.28;;;0.00;;
39400;SDS011;54391;50.000;7.360;2023-08-01T01:29:09;0.35;;;0.00;;
39400;SDS011;54391;50.000;7.360;2023-08-01T01:31:37;0.20;;;0.00;;
39400;SDS011;54391;50.000;7.360;2023-08-01T01:34:05;0.00;;;0.00;;
39400;SDS011;54391;50.000;7.360;2023-08-01T01:36:34;0.00;;;0.00;;
39400;SDS011;54391;50.000;7.360;2023-08-01T01:39:02;0.10;;;0.00;;
39400;SDS011;54391;50.000;7.360;2023-08-01T01:41:30;0.00;;;0.00;;
39400;SDS011;54391;50.000;7.360;2023-08-01T01:43:57;0.00;;;0.00;;
39400;SDS011;54391;50.000;7.360;2023-08-01T01:46:24;0.00;;;0.00;;
39400;SDS011;54391;50.000;7.360;2023-08-01T01:48:51;0.00;;;0.00;;
39400;SDS011;54391;50.000;7.360;2023-08-01T01:51:19;0.00;;;0.00;;
39400;SDS011;54391;50.000;7.360;2023-08-01T01:53:46;0.10;;;0.03;;
39400;SDS011;54391;50.000;7.360;2023-08-01T01:56:15;0.00;;;0.00;;
39400;SDS011;54391;50.000;7.360;2023-08-01T01:58:42;0.00;;;0.00;;
39400;SDS011;54391;50.000;7.360;2023-08-01T02:01:10;0.60;;;0.00;;
39400;SDS011;54391;50.000;7.360;2023-08-01T02:03:37;0.20;;;0.00;;
39400;SDS011;54391;50.000;7.360;2023-08-01T02:06:04;0.00;;;0.00;;
39400;SDS011;54391;50.000;7.360;2023-08-01T02:08:31;0.00;;;0.00;;
39400;SDS011;54391;50.000;7.360;2023-08-01T02:10:59;0.20;;;0.00;;
39400;SDS011;54391;50.000;7.360;2023-08-01T02:13:28;0.05;;;0.00;;
39400;SDS011;54391;50.000;7.360;2023-08-01T02:15:56;0.00;;;0.00;;
39400;SDS011;54391;50.000;7.360;2023-08-01T02:18:23;0.00;;;0.00;;
39400;SDS011;54391;50.000;7.360;2023-08-01T02:20:50;0.45;;;0.00;;
39400;SDS011;54391;50.000;7.360;2023-08-01T02:23:18;0.10;;;0.00;;
39400;SDS011;54391;50.000;7.360;2023-08-01T02:25:45;0.30;;;0.00;;
39400;SDS011;54391;50.000;7.360;2023-08-01T02:28:13;0.10;;;0.00;;
39400;SDS011;54391;50.000;7.360;2023-08-01T02:30:41;0.00;;;0.00;;
39400;SDS011;54391;50.000;7.360;2023-08-01T02:33:09;0.00;;;0.00;;
39400;SDS011;54391;50.000;7.360;2023-08-01T02:35:36;0.10;;;0.00;;
39400;SDS011;54391;50.000;7.360;2023-08-01T02:38:03;0.08;;;0.00;;
39400;SDS011;54391;50.000;7.360;2023-08-01T02:40:31;0.20;;;0.00;;
39400;SDS011;54391;50.000;7.360;2023-08-01T02:42:59;0.00;;;0.00;;
39400;SDS011;54391;50.000;7.360;2023-08-01T02:45:26;0.00;;;0.00;;
39400;SDS011;54391;50.000;7.360;2023-08-01T02:47:55;0.10;;;0.00;;
39400;SDS011;54391;50.000;7.360;2023-08-01T02:50:22;0.00;;;0.00;;
39400;SDS011;54391;50.000;7.360;2023-08-01T02:52:49;2.28;;;0.55;;
39400;SDS011;54391;50.000;7.360;2023-08-01T02:55:16;0.20;;;0.00;;
39400;SDS011;54391;50.000;7.360;2023-08-01T02:57:43;0.10;;;0.00;;
39400;SDS011;54391;50.000;7.360;2023-08-01T03:00:11;0.00;;;0.00;;
39400;SDS011;54391;50.000;7.360;2023-08-01T03:02:39;0.20;;;0.00;;
39400;SDS011;54391;50.000;7.360;2023-08-01T03:05:08;0.10;;;0.00;;
39400;SDS011;54391;50.000;7.360;2023-08-01T03:07:36;0.38;;;0.03;;
39400;SDS011;54391;50.000;7.360;2023-08-01T03:10:03;0.00;;;0.00;;
39400;SDS011;54391;50.000;7.360;2023-08-01T03:12:32;0.03;;;0.00;;
39400;SDS011;54391;50.000;7.360;2023-08-01T03:14:59;0.00;;;0.00;;
39400;SDS011;54391;50.000;7.360;2023-08-01T03:17:26;0.00;;;0.00;;
39400;SDS011;54391;50.000;7.360;2023-08-01T03:19:53;0.00;;;0.00;;
39400;SDS011;54391;50.000;7.360;2023-08-01T03:22:22;0.32;;;0.00;;
39400;SDS011;54391;50.000;7.360;2023-08-01T03:24:49;0.00;;;0.00;;
39400;SDS011;54391;50.000;7.360;2023-08-01T03:27:17;0.00;;;0.00;;
39400;SDS011;54391;50.000;7.360;2023-08-01T03:29:44;0.00;;;0.00;;
39400;SDS011;54391;50.000;7.360;2023-08-01T03:32:11;0.00;;;0.00;;
39400;SDS011;54391;50.000;7.360;2023-08-01T03:34:38;0.00;;;0.00;;
39400;SDS011;54391;50.000;7.360;2023-08-01T03:37:06;0.00;;;0.00;;
39400;SDS011;54391;50.000;7.360;2023-08-01T03:39:35;0.00;;;0.00;;
39400;SDS011;54391;50.000;7.360;2023-08-01T03:42:03;0.00;;;0.00;;
39400;SDS011;54391;50.000;7.360;2023-08-01T03:44:30;0.00;;;0.00;;
39400;SDS011;54391;50.000;7.360;2023-08-01T03:46:58;0.05;;;0.00;;
39400;SDS011;54391;50.000;7.360;2023-08-01T03:49:26;0.00;;;0.00;;
39400;SDS011;54391;50.000;7.360;2023-08-01T03:51:53;0.00;;;0.00;;
39400;SDS011;54391;50.000;7.360;2023-08-01T03:54:20;0.03;;;0.00;;
39400;SDS011;54391;50.000;7.360;2023-08-01T03:56:49;0.00;;;0.00;;
39400;SDS011;54391;50.000;7.360;2023-08-01T03:59:17;0.00;;;0.00;;
39400;SDS011;54391;50.000;7.360;2023-08-01T04:01:44;0.20;;;0.00;;
39400;SDS011;54391;50.000;7.360;2023-08-01T04:04:12;0.00;;;0.00;;
39400;SDS011;54391;50.000;7.360;2023-08-01T04:06:39;0.00;;;0.00;;
39400;SDS011;54391;50.000;7.360;2023-08-01T04:09:06;0.15;;;0.00;;
39400;SDS011;54391;50.000;7.360;2023-08-01T04:11:34;0.05;;;0.00;;
39400;SDS011;54391;50.000;7.360;2023-08-01T04:14:02;0.00;;;0.00;;
39400;SDS011;54391;50.000;7.360;2023-08-01T04:16:30;0.00;;;0.00;;
39400;SDS011;54391;50.000;7.360;2023-08-01T04:18:57;0.00;;;0.00;;
39400;SDS011;54391;50.000;7.360;2023-08-01T04:21:24;0.00;;;0.00;;
39400;SDS011;54391;50.000;7.360;2023-08-01T04:23:51;0.00;;;0.00;;
39400;SDS011;54391;50.000;7.360;2023-08-01T04:26:19;0.10;;;0.00;;
39400;SDS011;54391;50.000;7.360;2023-08-01T04:28:46;0.00;;;0.00;;
39400;SDS011;54391;50.000;7.360;2023-08-01T04:31:14;0.00;;;0.00;;
39400;SDS011;54391;50.000;7.360;2023-08-01T04:33:42;0.10;;;0.00;;
39400;SDS011;54391;50.000;7.360;2023-08-01T04:36:10;0.00;;;0.00;;
39400;SDS011;54391;50.000;7.360;2023-08-01T04:38:37;0.00;;;0.00;;
39400;SDS011;54391;50.000;7.360;2023-08-01T04:41:04;0.00;;;0.00;;
39400;SDS011;54391;50.000;7.360;2023-08-01T04:43:31;0.10;;;0.00;;
39400;SDS011;54391;50.000;7.360;2023-08-01T04:45:59;0.00;;;0.00;;
39400;SDS011;54391;50.000;7.360;2023-08-01T04:48:27;0.00;;;0.00;;
39400;SDS011;54391;50.000;7.360;2023-08-01T04:50:54;0.22;;;0.00;;
39400;SDS011;54391;50.000;7.360;2023-08-01T04:53:22;0.10;;;0.00;;
39400;SDS011;54391;50.000;7.360;2023-08-01T04:55:49;2.17;;;0.22;;
39400;SDS011;54391;50.000;7.360;2023-08-01T04:58:17;0.50;;;0.00;;
39400;SDS011;54391;50.000;7.360;2023-08-01T05:00:44;0.13;;;0.00;;
39400;SDS011;54391;50.000;7.360;2023-08-01T05:03:11;0.00;;;0.00;;
39400;SDS011;54391;50.000;7.360;2023-08-01T05:05:40;0.00;;;0.00;;
39400;SDS011;54391;50.000;7.360;2023-08-01T05:08:07;0.00;;;0.00;;
39400;SDS011;54391;50.000;7.360;2023-08-01T05:10:34;0.00;;;0.00;;
39400;SDS011;54391;50.000;7.360;2023-08-01T05:13:01;0.00;;;0.00;;
39400;SDS011;54391;50.000;7.360;2023-08-01T05:15:29;0.00;;;0.00;;
39400;SDS011;54391;50.000;7.360;2023-08-01T05:17:56;0.00;;;0.00;;
39400;SDS011;54391;50.000;7.360;2023-08-01T05:20:23;0.00;;;0.00;;
39400;SDS011;54391;50.000;7.360;2023-08-01T05:22:57;0.00;;;0.00;;
39400;SDS011;54391;50.000;7.360;2023-08-01T05:25:25;0.00;;;0.00;;
39400;SDS011;54391;50.000;7.360;2023-08-01T05:27:52;0.05;;;0.00;;
39400;SDS011;54391;50.000;7.360;2023-08-01T05:30:19;0.00;;;0.00;;
39400;SDS011;54391;50.000;7.360;2023-08-01T05:32:46;0.00;;;0.00;;
39400;SDS011;54391;50.000;7.360;2023-08-01T05:35:14;0.00;;;0.00;;
39400;SDS011;54391;50.000;7.360;2023-08-01T05:37:41;0.00;;;0.00;;
39400;SDS011;54391;50.000;7.360;2023-08-01T05:40:10;0.00;;;0.00;;
39400;SDS011;54391;50.000;7.360;2023-08-01T05:42:38;0.00;;;0.00;;
39400;SDS011;54391;50.000;7.360;2023-08-01T05:45:05;0.00;;;0.00;;
39400;SDS011;54391;50.000;7.360;2023-08-01T05:47:33;0.52;;;0.00;;
39400;SDS011;54391;50.000;7.360;2023-08-01T05:50:01;0.00;;;0.00;;
39400;SDS011;54391;50.000;7.360;2023-08-01T05:52:29;0.00;;;0.00;;
39400;SDS011;54391;50.000;7.360;2023-08-01T05:54:56;0.00;;;0.00;;
39400;SDS011;54391;50.000;7.360;2023-08-01T05:57:25;0.00;;;0.00;;
39400;SDS011;54391;50.000;7.360;2023-08-01T05:59:52;0.32;;;0.00;;
39400;SDS011;54391;50.000;7.360;2023-08-01T06:02:20;0.00;;;0.00;;
39400;SDS011;54391;50.000;7.360;2023-08-01T06:04:47;0.10;;;0.00;;
39400;SDS011;54391;50.000;7.360;2023-08-01T06:07:14;0.90;;;0.00;;
39400;SDS011;54391;50.000;7.360;2023-08-01T06:09:41;0.20;;;0.00;;
39400;SDS011;54391;50.000;7.360;2023-08-01T06:12:09;0.00;;;0.00;;
39400;SDS011;54391;50.000;7.360;2023-08-01T06:14:37;0.43;;;0.00;;
39400;SDS011;54391;50.000;7.360;2023-08-01T06:17:04;0.10;;;0.00;;
39400;SDS011;54391;50.000;7.360;2023-08-01T06:19:32;0.00;;;0.00;;
39400;SDS011;54391;50.000;7.360;2023-08-01T06:21:59;0.00;;;0.00;;
39400;SDS011;54391;50.000;7.360;2023-08-01T06:24:26;0.00;;;0.00;;
39400;SDS011;54391;50.000;7.360;2023-08-01T06:26:53;0.40;;;0.00;;
39400;SDS011;54391;50.000;7.360;2023-08-01T06:29:21;0.10;;;0.00;;
39400;SDS011;54391;50.000;7.360;2023-08-01T06:31:51;3.22;;;0.63;;
39400;SDS011;54391;50.000;7.360;2023-08-01T06:34:19;0.10;;;0.00;;
39400;SDS011;54391;50.000;7.360;2023-08-01T06:36:46;0.17;;;0.00;;
39400;SDS011;54391;50.000;7.360;2023-08-01T06:39:13;0.20;;;0.00;;
39400;SDS011;54391;50.000;7.360;2023-08-01T06:41:40;0.22;;;0.00;;
39400;SDS011;54391;50.000;7.360;2023-08-01T06:44:07;0.10;;;0.00;;
39400;SDS011;54391;50.000;7.360;2023-08-01T06:46:35;0.00;;;0.00;;
39400;SDS011;54391;50.000;7.360;2023-08-01T06:49:03;0.10;;;0.00;;
39400;SDS011;54391;50.000;7.360;2023-08-01T06:51:31;0.10;;;0.00;;
39400;SDS011;54391;50.000;7.360;2023-08-01T06:53:58;0.20;;;0.00;;
39400;SDS011;54391;50.000;7.360;2023-08-01T06:56:25;0.52;;;0.00;;
39400;SDS011;54391;50.000;7.360;2023-08-01T06:58:53;0.30;;;0.00;;
39400;SDS011;54391;50.000;7.360;2023-08-01T07:01:20;0.00;;;0.00;;
39400;SDS011;54391;50.000;7.360;2023-08-01T07:03:48;0.10;;;0.03;;
39400;SDS011;54391;50.000;7.360;2023-08-01T07:06:17;0.30;;;0.10;;
39400;SDS011;54391;50.000;7.360;2023-08-01T07:08:45;0.20;;;0.10;;
39400;SDS011;54391;50.000;7.360;2023-08-01T07:11:12;0.30;;;0.22;;
39400;SDS011;54391;50.000;7.360;2023-08-01T07:13:39;1.20;;;0.15;;
39400;SDS011;54391;50.000;7.360;2023-08-01T07:16:06;1.05;;;0.15;;
39400;SDS011;54391;50.000;7.360;2023-08-01T07:18:35;0.75;;;0.10;;
39400;SDS011;54391;50.000;7.360;2023-08-01T07:21:02;0.55;;;0.20;;
39400;SDS011;54391;50.000;7.360;2023-08-01T07:23:33;0.60;;;0.30;;
39400;SDS011;54391;50.000;7.360;2023-08-01T07:26:01;0.50;;;0.40;;
39400;SDS011;54391;50.000;7.360;2023-08-01T07:28:29;0.70;;;0.30;;
39400;SDS011;54391;50.000;7.360;2023-08-01T07:30:59;1.00;;;0.50;;
39400;SDS011;54391;50.000;7.360;2023-08-01T07:33:26;0.70;;;0.50;;
39400;SDS011;54391;50.000;7.360;2023-08-01T07:35:54;1.42;;;0.50;;
39400;SDS011;54391;50.000;7.360;2023-08-01T07:38:21;1.15;;;0.50;;
39400;SDS011;54391;50.000;7.360;2023-08-01T07:40:50;1.65;;;0.50;;
39400;SDS011;54391;50.000;7.360;2023-08-01T07:43:17;1.50;;;0.73;;
39400;SDS011;54391;50.000;7.360;2023-08-01T07:45:45;2.00;;;0.60;;
39400;SDS011;54391;50.000;7.360;2023-08-01T07:48:15;2.17;;;0.80;;
39400;SDS011;54391;50.000;7.360;2023-08-01T07:50:42;1.10;;;0.70;;
39400;SDS011;54391;50.000;7.360;2023-08-01T07:53:10;3.08;;;1.20;;
39400;SDS011;54391;50.000;7.360;2023-08-01T07:55:37;1.70;;;0.70;;
39400;SDS011;54391;50.000;7.360;2023-08-01T07:58:05;2.85;;;0.90;;
39400;SDS011;54391;50.000;7.360;2023-08-01T08:00:34;3.47;;;1.00;;
39400;SDS011;54391;50.000;7.360;2023-08-01T08:03:01;2.88;;;0.80;;
39400;SDS011;54391;50.000;7.360;2023-08-01T08:05:30;1.05;;;0.82;;
39400;SDS011;54391;50.000;7.360;2023-08-01T08:07:58;3.92;;;1.10;;
39400;SDS011;54391;50.000;7.360;2023-08-01T08:10:25;1.10;;;0.70;;
39400;SDS011;54391;50.000;7.360;2023-08-01T08:12:52;2.67;;;0.82;;
39400;SDS011;54391;50.000;7.360;2023-08-01T08:15:21;4.00;;;0.95;;
39400;SDS011;54391;50.000;7.360;2023-08-01T08:17:50;3.28;;;1.20;;
39400;SDS011;54391;50.000;7.360;2023-08-01T08:20:17;2.22;;;0.90;;
39400;SDS011;54391;50.000;7.360;2023-08-01T08:22:44;2.55;;;0.80;;
39400;SDS011;54391;50.000;7.360;2023-08-01T08:25:11;1.50;;;0.85;;
39400;SDS011;54391;50.000;7.360;2023-08-01T08:27:38;1.75;;;0.60;;
39400;SDS011;54391;50.000;7.360;2023-08-01T08:30:06;5.22;;;0.90;;
39400;SDS011;54391;50.000;7.360;2023-08-01T08:32:35;1.52;;;0.60;;
39400;SDS011;54391;50.000;7.360;2023-08-01T08:35:03;1.42;;;0.60;;
39400;SDS011;54391;50.000;7.360;2023-08-01T08:37:30;1.50;;;0.75;;
39400;SDS011;54391;50.000;7.360;2023-08-01T08:39:58;3.25;;;0.80;;
39400;SDS011;54391;50.000;7.360;2023-08-01T08:42:25;1.38;;;0.90;;
39400;SDS011;54391;50.000;7.360;2023-08-01T08:44:54;2.42;;;0.90;;
39400;SDS011;54391;50.000;7.360;2023-08-01T08:47:23;2.00;;;0.90;;
39400;SDS011;54391;50.000;7.360;2023-08-01T08:49:53;5.28;;;1.15;;
39400;SDS011;54391;50.000;7.360;2023-08-01T08:52:22;2.65;;;1.13;;
39400;SDS011;54391;50.000;7.360;2023-08-01T08:54:50;2.65;;;1.05;;
39400;SDS011;54391;50.000;7.360;2023-08-01T08:57:18;6.38;;;1.30;;
39400;SDS011;54391;50.000;7.360;2023-08-01T08:59:46;3.72;;;1.20;;
39400;SDS011;54391;50.000;7.360;2023-08-01T09:02:14;2.85;;;1.30;;
39400;SDS011;54391;50.000;7.360;2023-08-01T09:04:42;2.42;;;1.08;;
39400;SDS011;54391;50.000;7.360;2023-08-01T09:07:11;4.40;;;1.35;;
39400;SDS011;54391;50.000;7.360;2023-08-01T09:09:42;2.22;;;1.10;;
39400;SDS011;54391;50.000;7.360;2023-08-01T09:12:09;2.80;;;1.10;;
39400;SDS011;54391;50.000;7.360;2023-08-01T09:14:36;5.10;;;1.42;;
39400;SDS011;54391;50.000;7.360;2023-08-01T09:17:07;3.60;;;1.52;;
39400;SDS011;54391;50.000;7.360;2023-08-01T09:19:34;2.42;;;1.40;;
39400;SDS011;54391;50.000;7.360;2023-08-01T09:22:01;4.00;;;1.60;;
39400;SDS011;54391;50.000;7.360;2023-08-01T09:24:37;4.47;;;1.50;;
39400;SDS011;54391;50.000;7.360;2023-08-01T09:27:04;4.50;;;1.63;;
39400;SDS011;54391;50.000;7.360;2023-08-01T09:29:33;4.40;;;1.40;;
39400;SDS011;54391;50.000;7.360;2023-08-01T09:32:10;2.90;;;1.27;;
39400;SDS011;54391;50.000;7.360;2023-08-01T09:34:39;3.92;;;1.60;;
39400;SDS011;54391;50.000;7.360;2023-08-01T09:37:07;2.10;;;1.30;;
39400;SDS011;54391;50.000;7.360;2023-08-01T09:39:34;8.15;;;1.80;;
39400;SDS011;54391;50.000;7.360;2023-08-01T09:42:03;5.05;;;1.95;;
39400;SDS011;54391;50.000;7.360;2023-08-01T09:44:30;2.72;;;1.45;;
39400;SDS011;54391;50.000;7.360;2023-08-01T09:46:58;4.65;;;1.60;;
39400;SDS011;54391;50.000;7.360;2023-08-01T09:49:27;3.63;;;1.63;;
39400;SDS011;54391;50.000;7.360;2023-08-01T09:51:55;2.70;;;1.60;;
39400;SDS011;54391;50.000;7.360;2023-08-01T09:54:23;5.90;;;1.88;;
39400;SDS011;54391;50.000;7.360;2023-08-01T09:56:52;4.72;;;1.98;;
39400;SDS011;54391;50.000;7.360;2023-08-01T09:59:22;4.95;;;1.40;;
39400;SDS011;54391;50.000;7.360;2023-08-01T10:01:50;4.18;;;1.65;;
39400;SDS011;54391;50.000;7.360;2023-08-01T10:04:18;6.28;;;1.92;;
39400;SDS011;54391;50.000;7.360;2023-08-01T10:06:48;6.50;;;1.52;;
39400;SDS011;54391;50.000;7.360;2023-08-01T10:09:26;3.20;;;1.40;;
39400;SDS011;54391;50.000;7.360;2023-08-01T10:11:56;3.22;;;1.42;;
39400;SDS011;54391;50.000;7.360;2023-08-01T10:14:24;5.13;;;1.75;;
39400;SDS011;54391;50.000;7.360;2023-08-01T10:16:52;4.05;;;1.50;;
39400;SDS011;54391;50.000;7.360;2023-08-01T10:19:21;4.28;;;1.70;;
39400;SDS011;54391;50.000;7.360;2023-08-01T10:21:49;4.70;;;1.73;;
39400;SDS011;54391;50.000;7.360;2023-08-01T10:24:17;4.45;;;1.95;;
39400;SDS011;54391;50.000;7.360;2023-08-01T10:26:45;4.55;;;1.52;;
39400;SDS011;54391;50.000;7.360;2023-08-01T10:29:14;6.93;;;2.03;;
39400;SDS011;54391;50.000;7.360;2023-08-01T10:34:26;5.85;;;1.98;;
39400;SDS011;54391;50.000;7.360;2023-08-01T10:36:54;4.03;;;1.98;;
39400;SDS011;54391;50.000;7.360;2023-08-01T10:39:21;7.38;;;1.95;;
39400;SDS011;54391;50.000;7.360;2023-08-01T10:41:56;5.20;;;1.85;;
39400;SDS011;54391;50.000;7.360;2023-08-01T10:44:26;6.03;;;2.15;;
39400;SDS011;54391;50.000;7.360;2023-08-01T10:46:54;5.03;;;1.92;;
39400;SDS011;54391;50.000;7.360;2023-08-01T10:49:32;5.90;;;2.55;;
39400;SDS011;54391;50.000;7.360;2023-08-01T10:52:02;7.15;;;2.03;;
39400;SDS011;54391;50.000;7.360;2023-08-01T10:54:31;4.47;;;2.10;;
39400;SDS011;54391;50.000;7.360;2023-08-01T10:57:03;6.35;;;2.05;;
39400;SDS011;54391;50.000;7.360;2023-08-01T10:59:33;8.15;;;2.15;;
39400;SDS011;54391;50.000;7.360;2023-08-01T11:02:01;7.85;;;1.85;;
39400;SDS011;54391;50.000;7.360;2023-08-01T11:04:28;3.50;;;1.67;;
39400;SDS011;54391;50.000;7.360;2023-08-01T11:06:55;4.05;;;1.95;;
39400;SDS011;54391;50.000;7.360;2023-08-01T11:09:23;3.97;;;1.60;;
39400;SDS011;54391;50.000;7.360;2023-08-01T11:11:53;4.95;;;2.30;;
39400;SDS011;54391;50.000;7.360;2023-08-01T11:14:21;5.15;;;1.65;;
39400;SDS011;54391;50.000;7.360;2023-08-01T11:16:51;3.65;;;1.67;;
39400;SDS011;54391;50.000;7.360;2023-08-01T11:19:20;3.97;;;1.75;;
39400;SDS011;54391;50.000;7.360;2023-08-01T11:21:49;7.28;;;2.15;;
39400;SDS011;54391;50.000;7.360;2023-08-01T11:24:17;4.68;;;2.00;;
39400;SDS011;54391;50.000;7.360;2023-08-01T11:26:46;8.50;;;1.75;;
39400;SDS011;54391;50.000;7.360;2023-08-01T11:29:14;3.55;;;1.88;;
39400;SDS011;54391;50.000;7.360;2023-08-01T11:31:52;4.85;;;1.83;;
39400;SDS011;54391;50.000;7.360;2023-08-01T11:34:20;4.25;;;1.85;;
39400;SDS011;54391;50.000;7.360;2023-08-01T11:36:48;4.72;;;2.00;;
39400;SDS011;54391;50.000;7.360;2023-08-01T11:39:16;2.65;;;1.52;;
39400;SDS011;54391;50.000;7.360;2023-08-01T11:41:43;6.80;;;1.80;;
39400;SDS011;54391;50.000;7.360;2023-08-01T11:44:14;5.03;;;1.77;;
39400;SDS011;54391;50.000;7.360;2023-08-01T11:46:41;3.08;;;1.60;;
39400;SDS011;54391;50.000;7.360;2023-08-01T11:49:13;3.53;;;2.03;;
39400;SDS011;54391;50.000;7.360;2023-08-01T11:51:41;4.03;;;1.98;;
39400;SDS011;54391;50.000;7.360;2023-08-01T11:54:09;4.47;;;2.08;;
39400;SDS011;54391;50.000;7.360;2023-08-01T11:56:38;4.18;;;1.88;;
39400;SDS011;54391;50.000;7.360;2023-08-01T11:59:09;6.15;;;2.05;;
39400;SDS011;54391;50.000;7.360;2023-08-01T12:01:38;4.50;;;1.85;;
39400;SDS011;54391;50.000;7.360;2023-08-01T12:04:06;3.47;;;1.52;;
39400;SDS011;54391;50.000;7.360;2023-08-01T12:06:35;3.35;;;1.35;;
39400;SDS011;54391;50.000;7.360;2023-08-01T12:09:06;2.95;;;1.20;;
39400;SDS011;54391;50.000;7.360;2023-08-01T12:11:35;4.75;;;2.00;;
39400;SDS011;54391;50.000;7.360;2023-08-01T12:14:03;5.38;;;1.98;;
39400;SDS011;54391;50.000;7.360;2023-08-01T12:16:34;3.97;;;1.75;;
39400;SDS011;54391;50.000;7.360;2023-08-01T12:19:02;3.47;;;1.52;;
39400;SDS011;54391;50.000;7.360;2023-08-01T12:21:30;2.83;;;1.70;;
39400;SDS011;54391;50.000;7.360;2023-08-01T12:23:59;3.20;;;1.70;;
39400;SDS011;54391;50.000;7.360;2023-08-01T12:26:27;5.40;;;1.58;;
39400;SDS011;54391;50.000;7.360;2023-08-01T12:28:54;3.13;;;1.50;;
39400;SDS011;54391;50.000;7.360;2023-08-01T12:31:21;3.60;;;1.67;;
39400;SDS011;54391;50.000;7.360;2023-08-01T12:33:49;9.23;;;2.83;;
39400;SDS011;54391;50.000;7.360;2023-08-01T12:36:17;4.43;;;1.60;;
39400;SDS011;54391;50.000;7.360;2023-08-01T12:38:45;5.53;;;2.10;;
39400;SDS011;54391;50.000;7.360;2023-08-01T12:41:13;5.95;;;1.73;;
39400;SDS011;54391;50.000;7.360;2023-08-01T12:43:40;4.97;;;1.55;;
39400;SDS011;54391;50.000;7.360;2023-08-01T12:46:08;3.20;;;1.30;;
39400;SDS011;54391;50.000;7.360;2023-08-01T12:48:35;3.65;;;1.50;;
39400;SDS011;54391;50.000;7.360;2023-08-01T12:51:02;4.03;;;1.42;;
39400;SDS011;54391;50.000;7.360;2023-08-01T12:53:30;3.33;;;1.63;;
39400;SDS011;54391;50.000;7.360;2023-08-01T12:56:03;5.63;;;1.70;;
39400;SDS011;54391;50.000;7.360;2023-08-01T12:58:32;3.92;;;1.42;;
39400;SDS011;54391;50.000;7.360;2023-08-01T13:01:01;5.28;;;2.00;;
39400;SDS011;54391;50.000;7.360;2023-08-01T13:03:29;4.15;;;1.88;;
39400;SDS011;54391;50.000;7.360;2023-08-01T13:05:56;4.65;;;1.55;;
39400;SDS011;54391;50.000;7.360;2023-08-01T13:08:23;3.15;;;1.70;;
39400;SDS011;54391;50.000;7.360;2023-08-01T13:10:50;3.65;;;1.75;;
39400;SDS011;54391;50.000;7.360;2023-08-01T13:13:18;3.60;;;1.67;;
39400;SDS011;54391;50.000;7.360;2023-08-01T13:15:46;2.72;;;1.35;;
39400;SDS011;54391;50.000;7.360;2023-08-01T13:18:14;2.83;;;1.40;;
39400;SDS011;54391;50.000;7.360;2023-08-01T13:20:42;8.98;;;1.88;;
39400;SDS011;54391;50.000;7.360;2023-08-01T13:23:10;3.30;;;1.48;;
39400;SDS011;54391;50.000;7.360;2023-08-01T13:25:37;3.92;;;1.52;;
39400;SDS011;54391;50.000;7.360;2023-08-01T13:28:04;3.35;;;1.10;;
39400;SDS011;54391;50.000;7.360;2023-08-01T13:30:31;3.45;;;1.40;;
39400;SDS011;54391;50.000;7.360;2023-08-01T13:33:00;2.13;;;0.90;;
39400;SDS011;54391;50.000;7.360;2023-08-01T13:35:27;3.67;;;1.25;;
39400;SDS011;54391;50.000;7.360;2023-08-01T13:37:54;1.33;;;0.90;;
39400;SDS011;54391;50.000;7.360;2023-08-01T13:40:21;3.22;;;1.10;;
39400;SDS011;54391;50.000;7.360;2023-08-01T13:42:50;3.42;;;1.23;;
39400;SDS011;54391;50.000;7.360;2023-08-01T13:45:18;1.95;;;0.75;;
39400;SDS011;54391;50.000;7.360;2023-08-01T13:47:45;2.35;;;0.93;;
39400;SDS011;54391;50.000;7.360;2023-08-01T13:50:14;1.88;;;0.82;;
39400;SDS011;54391;50.000;7.360;2023-08-01T13:52:41;2.78;;;1.30;;
39400;SDS011;54391;50.000;7.360;2023-08-01T13:55:09;4.60;;;1.40;;
39400;SDS011;54391;50.000;7.360;2023-08-01T13:57:37;3.05;;;1.08;;
39400;SDS011;54391;50.000;7.360;2023-08-01T14:00:04;2.47;;;1.00;;
39400;SDS011;54391;50.000;7.360;2023-08-01T14:02:36;2.10;;;0.93;;
39400;SDS011;54391;50.000;7.360;2023-08-01T14:05:04;2.22;;;1.00;;
39400;SDS011;54391;50.000;7.360;2023-08-01T14:07:35;2.05;;;0.90;;
39400;SDS011;54391;50.000;7.360;2023-08-01T14:10:03;2.20;;;0.80;;
39400;SDS011;54391;50.000;7.360;2023-08-01T14:12:31;1.92;;;0.82;;
39400;SDS011;54391;50.000;7.360;2023-08-01T14:14:58;2.45;;;0.80;;
39400;SDS011;54391;50.000;7.360;2023-08-01T14:17:25;2.60;;;0.80;;
39400;SDS011;54391;50.000;7.360;2023-08-01T14:19:53;2.13;;;0.70;;
39400;SDS011;54391;50.000;7.360;2023-08-01T14:22:21;2.63;;;0.70;;
39400;SDS011;54391;50.000;7.360;2023-08-01T14:24:50;1.65;;;0.90;;
39400;SDS011;54391;50.000;7.360;2023-08-01T14:27:17;2.25;;;0.90;;
39400;SDS011;54391;50.000;7.360;2023-08-01T14:29:44;1.85;;;0.70;;
39400;SDS011;54391;50.000;7.360;2023-08-01T14:32:12;1.58;;;0.65;;
39400;SDS011;54391;50.000;7.360;2023-08-01T14:34:39;2.53;;;0.80;;
39400;SDS011;54391;50.000;7.360;2023-08-01T14:37:06;1.55;;;0.70;;
39400;SDS011;54391;50.000;7.360;2023-08-01T14:39:33;1.80;;;0.60;;
39400;SDS011;54391;50.000;7.360;2023-08-01T14:42:02;2.75;;;0.90;;
39400;SDS011;54391;50.000;7.360;2023-08-01T14:44:29;1.75;;;0.70;;
39400;SDS011;54391;50.000;7.360;2023-08-01T14:46:57;1.10;;;0.40;;
39400;SDS011;54391;50.000;7.360;2023-08-01T14:49:24;0.60;;;0.32;;
39400;SDS011;54391;50.000;7.360;2023-08-01T14:51:53;1.23;;;0.60;;
39400;SDS011;54391;50.000;7.360;2023-08-01T14:54:20;2.17;;;0.80;;